createdAt,value
2018-08-10T00:00:43.010Z,99.90
2018-08-10T00:03:11.493Z,99.90
2018-08-10T00:05:40.793Z,99.90
2018-08-10T00:08:09.274Z,99.90
2018-08-10T00:10:37.745Z,99.90
2018-08-10T00:13:06.426Z,99.90
2018-08-10T00:15:34.869Z,99.90
2018-08-10T00:18:03.312Z,99.90
2018-08-10T00:20:31.750Z,99.90
2018-08-10T00:23:00.166Z,99.90
2018-08-10T00:25:28.613Z,99.90
2018-08-10T00:27:57.080Z,99.90
2018-08-10T00:30:25.573Z,99.90
2018-08-10T00:32:54.057Z,99.90
2018-08-10T00:35:22.497Z,99.90
2018-08-10T00:37:50.924Z,99.90
2018-08-10T00:40:20.889Z,99.90
2018-08-10T00:42:49.386Z,99.90
2018-08-10T00:45:18.536Z,99.90
2018-08-10T00:47:47.623Z,99.90
2018-08-10T00:50:16.939Z,99.90
2018-08-10T00:52:46.116Z,99.90
2018-08-10T00:55:16.052Z,99.90
2018-08-10T00:57:44.930Z,99.90
2018-08-10T01:00:19.458Z,99.90
2018-08-10T01:02:47.928Z,99.90
2018-08-10T01:05:16.492Z,99.90
2018-08-10T01:07:44.919Z,99.90
2018-08-10T01:10:15.357Z,99.90
2018-08-10T01:12:43.860Z,99.90
2018-08-10T01:15:14.085Z,99.90
2018-08-10T01:17:42.932Z,99.90
2018-08-10T01:20:19.421Z,99.90
2018-08-10T01:22:53.187Z,99.90
2018-08-10T01:25:23.076Z,99.90
2018-08-10T01:27:56.867Z,99.90
2018-08-10T01:30:26.554Z,99.90
2018-08-10T01:32:55.002Z,99.90
2018-08-10T01:35:24.242Z,99.90
2018-08-10T01:37:52.949Z,99.90
2018-08-10T01:40:21.385Z,99.90
2018-08-10T01:42:49.881Z,99.90
2018-08-10T01:45:18.389Z,99.90
2018-08-10T01:47:47.029Z,99.90
2018-08-10T01:50:15.469Z,99.90
2018-08-10T01:52:43.899Z,99.90
2018-08-10T01:55:12.601Z,99.90
2018-08-10T01:57:41.470Z,99.90
2018-08-10T02:00:10.410Z,99.90
2018-08-10T02:02:38.945Z,99.90
2018-08-10T02:05:10.353Z,99.90
2018-08-10T02:07:39.526Z,99.90
2018-08-10T02:10:10.145Z,99.90
2018-08-10T02:12:39.360Z,99.90
2018-08-10T02:15:11.017Z,99.90
2018-08-10T02:17:39.589Z,99.90
2018-08-10T02:20:09.995Z,99.90
2018-08-10T02:22:38.465Z,99.90
2018-08-10T02:25:09.134Z,99.90
2018-08-10T02:27:37.605Z,99.90
2018-08-10T02:30:07.705Z,99.90
2018-08-10T02:32:36.158Z,99.90
2018-08-10T02:35:04.801Z,99.90
2018-08-10T02:37:33.293Z,99.90
2018-08-10T02:40:01.734Z,99.90
2018-08-10T02:42:30.217Z,99.90
2018-08-10T02:44:58.937Z,99.90
2018-08-10T02:47:27.366Z,99.90
2018-08-10T02:49:56.285Z,99.90
2018-08-10T02:52:24.905Z,99.90
2018-08-10T02:54:53.861Z,99.90
2018-08-10T02:57:22.781Z,99.90
2018-08-10T02:59:51.438Z,99.90
2018-08-10T03:02:20.131Z,99.90
2018-08-10T03:04:48.593Z,99.90
2018-08-10T03:07:17.032Z,99.90
2018-08-10T03:09:45.437Z,99.90
2018-08-10T03:12:14.186Z,99.90
2018-08-10T03:14:43.223Z,99.90
2018-08-10T03:17:12.068Z,99.90
2018-08-10T03:19:40.507Z,99.90
2018-08-10T03:22:09.067Z,99.90
2018-08-10T03:24:37.805Z,99.90
2018-08-10T03:27:07.082Z,99.90
2018-08-10T03:29:35.826Z,99.90
2018-08-10T03:32:04.497Z,99.90
2018-08-10T03:34:32.954Z,99.90
2018-08-10T03:37:01.453Z,99.90
2018-08-10T03:39:29.960Z,99.90
2018-08-10T03:41:58.645Z,99.90
2018-08-10T03:44:27.060Z,99.90
2018-08-10T03:46:55.524Z,99.90
2018-08-10T03:49:23.983Z,99.90
2018-08-10T03:51:52.406Z,99.90
2018-08-10T03:54:20.866Z,99.90
2018-08-10T03:56:49.290Z,99.90
2018-08-10T03:59:17.759Z,99.90
2018-08-10T04:01:46.206Z,99.90
2018-08-10T04:04:14.635Z,99.90
2018-08-10T04:06:43.061Z,99.90
2018-08-10T04:09:12.670Z,99.90
2018-08-10T04:11:41.761Z,99.90
2018-08-10T04:14:10.513Z,99.90
2018-08-10T04:16:38.949Z,99.90
2018-08-10T04:19:07.373Z,99.90
2018-08-10T04:21:35.880Z,99.90
2018-08-10T04:24:04.413Z,99.90
2018-08-10T04:26:32.848Z,99.90
2018-08-10T04:29:01.318Z,99.90
2018-08-10T04:31:29.737Z,99.90
2018-08-10T04:33:58.401Z,99.90
2018-08-10T04:36:26.858Z,99.90
2018-08-10T04:38:55.310Z,99.90
2018-08-10T04:41:23.748Z,99.90
2018-08-10T04:43:52.182Z,99.90
2018-08-10T04:46:20.625Z,99.90
2018-08-10T04:48:49.347Z,99.90
2018-08-10T04:51:17.794Z,99.90
2018-08-10T04:53:46.253Z,99.90
2018-08-10T04:56:14.714Z,99.90
2018-08-10T04:58:43.188Z,99.90
2018-08-10T05:01:11.674Z,99.90
2018-08-10T05:03:40.178Z,99.90
2018-08-10T05:06:08.674Z,99.90
2018-08-10T05:08:37.147Z,99.90
2018-08-10T05:11:05.606Z,99.90
2018-08-10T05:13:34.126Z,99.90
2018-08-10T05:16:02.568Z,99.90
2018-08-10T05:18:31.338Z,99.90
2018-08-10T05:20:59.917Z,99.90
2018-08-10T05:23:29.054Z,99.90
2018-08-10T05:25:57.545Z,99.90
2018-08-10T05:28:25.967Z,99.90
2018-08-10T05:30:54.622Z,99.90
2018-08-10T05:33:23.096Z,99.90
2018-08-10T05:35:51.626Z,99.90
2018-08-10T05:38:20.074Z,99.90
2018-08-10T05:40:48.533Z,99.90
2018-08-10T05:43:16.986Z,99.90
2018-08-10T05:45:45.677Z,99.90
2018-08-10T05:48:14.678Z,99.90
2018-08-10T05:50:43.310Z,99.90
2018-08-10T05:53:11.754Z,99.90
2018-08-10T05:55:40.213Z,99.90
2018-08-10T05:58:08.665Z,99.90
2018-08-10T06:00:37.176Z,99.90
2018-08-10T06:03:06.350Z,99.90
2018-08-10T06:05:34.813Z,99.90
2018-08-10T06:08:03.267Z,99.90
2018-08-10T06:10:31.709Z,99.90
2018-08-10T06:13:00.792Z,99.90
2018-08-10T06:15:29.343Z,99.90
2018-08-10T06:17:57.814Z,99.90
2018-08-10T06:20:26.286Z,99.90
2018-08-10T06:22:55.266Z,99.90
2018-08-10T06:25:23.823Z,99.90
2018-08-10T06:27:52.303Z,99.90
2018-08-10T06:30:21.029Z,99.90
2018-08-10T06:32:50.121Z,99.90
2018-08-10T06:35:18.677Z,99.90
2018-08-10T06:37:47.092Z,99.90
2018-08-10T06:40:15.564Z,99.90
2018-08-10T06:42:44.035Z,99.90
2018-08-10T06:45:12.581Z,99.90
2018-08-10T06:47:41.007Z,99.90
2018-08-10T06:50:09.517Z,99.90
2018-08-10T06:52:37.962Z,99.90
2018-08-10T06:55:06.473Z,99.90
2018-08-10T06:57:35.369Z,99.90
2018-08-10T07:00:04.874Z,99.90
2018-08-10T07:02:33.290Z,99.90
2018-08-10T07:05:01.827Z,99.90
2018-08-10T07:07:30.314Z,99.90
2018-08-10T07:10:03.537Z,99.90
2018-08-10T07:12:32.018Z,99.90
2018-08-10T07:15:00.606Z,99.90
2018-08-10T07:17:29.249Z,99.90
2018-08-10T07:19:57.851Z,99.90
2018-08-10T07:22:26.453Z,99.90
2018-08-10T07:24:55.107Z,99.90
2018-08-10T07:27:23.586Z,99.90
2018-08-10T07:29:52.046Z,99.90
2018-08-10T07:32:20.528Z,99.90
2018-08-10T07:34:48.967Z,99.90
2018-08-10T07:37:17.650Z,99.90
2018-08-10T07:39:46.062Z,99.90
2018-08-10T07:42:14.746Z,99.90
2018-08-10T07:44:43.430Z,99.90
2018-08-10T07:47:11.882Z,99.90
2018-08-10T07:49:40.297Z,99.90
2018-08-10T07:52:08.806Z,99.90
2018-08-10T07:54:37.225Z,99.90
2018-08-10T07:57:05.758Z,99.90
2018-08-10T07:59:34.226Z,99.90
2018-08-10T08:02:02.764Z,99.90
2018-08-10T08:04:31.465Z,99.90
2018-08-10T08:06:59.957Z,99.90
2018-08-10T08:09:28.345Z,99.90
2018-08-10T08:11:56.892Z,99.90
2018-08-10T08:14:25.613Z,99.90
2018-08-10T08:16:54.178Z,99.90
2018-08-10T08:19:22.727Z,99.90
2018-08-10T08:22:07.233Z,99.90
2018-08-10T08:24:36.682Z,99.90
2018-08-10T08:27:05.322Z,99.90
2018-08-10T08:29:34.052Z,99.90
2018-08-10T08:32:02.838Z,99.90
2018-08-10T08:34:31.365Z,99.90
2018-08-10T08:37:00.188Z,99.90
2018-08-10T08:40:43.853Z,99.90
2018-08-10T08:43:12.493Z,99.90
2018-08-10T08:45:49.257Z,99.90
2018-08-10T08:48:17.716Z,99.90
2018-08-10T08:50:48.582Z,99.90
2018-08-10T08:53:17.051Z,99.90
2018-08-10T08:56:02.342Z,99.90
2018-08-10T08:58:31.456Z,99.90
2018-08-10T09:00:59.985Z,99.90
2018-08-10T09:03:40.395Z,99.90
2018-08-10T09:06:09.171Z,99.90
2018-08-10T09:08:38.097Z,99.90
2018-08-10T09:11:08.082Z,99.90
2018-08-10T09:14:54.229Z,99.90
2018-08-10T09:17:22.780Z,99.90
2018-08-10T09:19:51.265Z,99.90
2018-08-10T09:22:19.746Z,99.90
2018-08-10T09:24:48.219Z,99.90
2018-08-10T09:27:17.029Z,99.90
2018-08-10T09:29:45.585Z,99.90
2018-08-10T09:32:14.053Z,99.90
2018-08-10T09:34:42.563Z,99.90
2018-08-10T09:37:11.323Z,99.90
2018-08-10T09:39:39.842Z,99.90
2018-08-10T09:42:08.559Z,99.90
2018-08-10T09:44:37.001Z,99.90
2018-08-10T09:47:06.212Z,99.90
2018-08-10T09:49:38.680Z,99.90
2018-08-10T09:52:07.157Z,99.90
2018-08-10T09:55:14.161Z,99.90
2018-08-10T09:57:42.602Z,99.90
2018-08-10T10:00:15.338Z,99.90
2018-08-10T10:02:47.977Z,99.90
2018-08-10T10:05:16.585Z,99.90
2018-08-10T10:07:45.694Z,99.90
2018-08-10T10:10:14.174Z,99.90
2018-08-10T10:12:42.961Z,99.90
2018-08-10T10:15:11.488Z,99.90
2018-08-10T10:17:39.899Z,99.90
2018-08-10T10:20:08.831Z,99.90
2018-08-10T10:22:37.317Z,99.90
2018-08-10T10:25:05.825Z,99.90
2018-08-10T10:27:34.533Z,99.90
2018-08-10T10:30:03.047Z,99.90
2018-08-10T10:32:31.997Z,99.90
2018-08-10T10:35:00.418Z,99.80
2018-08-10T10:37:28.903Z,99.90
2018-08-10T10:39:57.441Z,99.90
2018-08-10T10:42:25.865Z,99.90
2018-08-10T10:44:54.325Z,99.90
2018-08-10T10:47:22.773Z,99.90
2018-08-10T10:49:51.211Z,99.90
2018-08-10T10:52:19.773Z,99.40
2018-08-10T10:54:48.194Z,99.30
2018-08-10T10:57:16.769Z,99.50
2018-08-10T10:59:46.149Z,99.70
2018-08-10T11:02:14.592Z,99.90
2018-08-10T11:04:43.033Z,99.90
2018-08-10T11:07:11.743Z,99.90
2018-08-10T11:09:40.405Z,99.30
2018-08-10T11:12:10.148Z,99.00
2018-08-10T11:14:42.675Z,98.70
2018-08-10T11:17:11.198Z,98.70
2018-08-10T11:19:41.544Z,99.60
2018-08-10T11:22:09.985Z,99.60
2018-08-10T11:24:38.407Z,99.90
2018-08-10T11:27:10.245Z,99.90
2018-08-10T11:29:38.686Z,99.90
2018-08-10T11:32:07.321Z,99.90
2018-08-10T11:34:35.688Z,99.90
2018-08-10T11:37:04.205Z,99.90
2018-08-10T11:39:32.645Z,99.90
2018-08-10T11:42:01.094Z,99.90
2018-08-10T11:44:29.522Z,99.90
2018-08-10T11:46:57.974Z,99.90
2018-08-10T11:49:26.464Z,99.90
2018-08-10T11:51:54.898Z,99.90
2018-08-10T11:54:23.330Z,99.90
2018-08-10T11:56:51.783Z,99.90
2018-08-10T11:59:21.205Z,99.90
2018-08-10T12:01:49.649Z,99.90
2018-08-10T12:04:18.084Z,99.90
2018-08-10T12:06:46.509Z,99.80
2018-08-10T12:09:15.150Z,99.90
2018-08-10T12:11:43.561Z,99.80
2018-08-10T12:14:11.995Z,99.90
2018-08-10T12:16:40.432Z,99.90
2018-08-10T12:19:09.054Z,99.90
2018-08-10T12:21:37.521Z,99.90
2018-08-10T12:24:06.585Z,99.90
2018-08-10T12:26:35.753Z,99.90
2018-08-10T12:29:04.262Z,99.70
2018-08-10T12:31:32.662Z,99.90
2018-08-10T12:34:01.097Z,99.90
2018-08-10T12:36:29.545Z,99.90
2018-08-10T12:38:58.002Z,99.40
2018-08-10T12:41:26.461Z,99.90
2018-08-10T12:43:55.014Z,99.90
2018-08-10T12:46:23.438Z,99.90
2018-08-10T12:48:51.890Z,99.90
2018-08-10T12:51:20.317Z,99.90
2018-08-10T12:53:48.803Z,99.90
2018-08-10T12:56:17.246Z,99.90
2018-08-10T12:58:46.456Z,99.90
2018-08-10T13:01:14.910Z,99.90
2018-08-10T13:03:43.341Z,99.90
2018-08-10T13:06:11.800Z,99.90
2018-08-10T13:08:40.506Z,99.90
2018-08-10T13:11:08.944Z,99.90
2018-08-10T13:13:37.445Z,99.90
2018-08-10T13:16:06.141Z,99.60
2018-08-10T13:18:34.683Z,99.50
2018-08-10T13:21:03.057Z,99.90
2018-08-10T13:23:31.501Z,99.40
2018-08-10T13:25:59.993Z,99.90
2018-08-10T13:28:28.440Z,99.90
2018-08-10T13:30:56.922Z,99.90
2018-08-10T13:33:25.397Z,99.80
2018-08-10T13:35:54.370Z,99.70
2018-08-10T13:38:23.152Z,99.90
2018-08-10T13:40:51.671Z,99.80
2018-08-10T13:43:20.174Z,99.80
2018-08-10T13:45:48.694Z,98.60
2018-08-10T13:48:17.137Z,99.80
2018-08-10T13:50:45.621Z,99.90
2018-08-10T13:53:14.115Z,99.90
2018-08-10T13:55:42.565Z,99.90
2018-08-10T13:58:11.010Z,99.90
2018-08-10T14:00:39.705Z,99.90
2018-08-10T14:03:08.356Z,99.90
2018-08-10T14:05:36.832Z,99.70
2018-08-10T14:08:05.318Z,99.90
2018-08-10T14:10:33.856Z,99.90
2018-08-10T14:13:02.301Z,99.70
2018-08-10T14:15:30.810Z,99.20
2018-08-10T14:17:59.245Z,99.00
2018-08-10T14:20:27.745Z,99.20
2018-08-10T14:22:56.280Z,98.70
2018-08-10T14:25:24.745Z,99.00
2018-08-10T14:27:53.236Z,98.40
2018-08-10T14:30:21.696Z,99.10
2018-08-10T14:32:50.151Z,98.60
2018-08-10T14:35:18.685Z,98.90
2018-08-10T14:37:47.129Z,98.70
2018-08-10T14:40:15.581Z,98.90
2018-08-10T14:42:44.018Z,98.90
2018-08-10T14:45:14.746Z,99.30
2018-08-10T14:47:43.249Z,99.40
2018-08-10T14:50:13.124Z,98.90
2018-08-10T14:52:41.642Z,98.40
2018-08-10T14:55:12.965Z,98.50
2018-08-10T14:57:41.602Z,98.50
2018-08-10T15:00:13.381Z,98.50
2018-08-10T15:02:41.893Z,98.00
2018-08-10T15:05:10.394Z,98.00
2018-08-10T15:07:38.853Z,97.90
2018-08-10T15:10:09.381Z,97.50
2018-08-10T15:12:38.276Z,97.60
2018-08-10T15:15:08.354Z,97.80
2018-08-10T15:17:36.847Z,97.30
2018-08-10T15:20:06.706Z,98.20
2018-08-10T15:22:35.138Z,97.80
2018-08-10T15:25:03.876Z,97.00
2018-08-10T15:27:32.212Z,96.80
2018-08-10T15:30:00.672Z,97.30
2018-08-10T15:32:29.107Z,97.60
2018-08-10T15:34:57.557Z,97.70
2018-08-10T15:37:26.448Z,96.80
2018-08-10T15:39:54.930Z,97.20
2018-08-10T15:42:23.846Z,97.40
2018-08-10T15:44:52.427Z,98.10
2018-08-10T15:47:20.950Z,98.50
2018-08-10T15:49:49.449Z,97.40
2018-08-10T15:52:17.901Z,97.70
2018-08-10T15:54:46.337Z,98.90
2018-08-10T15:57:14.833Z,98.20
2018-08-10T15:59:44.006Z,98.00
2018-08-10T16:02:12.554Z,97.20
2018-08-10T16:04:40.950Z,97.40
2018-08-10T16:07:09.457Z,97.70
2018-08-10T16:09:37.893Z,97.80
2018-08-10T16:12:06.482Z,97.90
2018-08-10T16:14:34.892Z,98.20
2018-08-10T16:17:03.505Z,98.00
2018-08-10T16:19:31.996Z,98.20
2018-08-10T16:22:00.424Z,98.10
2018-08-10T16:24:28.916Z,98.00
2018-08-10T16:26:57.412Z,97.60
2018-08-10T16:29:25.836Z,98.30
2018-08-10T16:31:54.585Z,98.00
2018-08-10T16:34:23.054Z,98.10
2018-08-10T16:36:51.489Z,98.40
2018-08-10T16:39:19.949Z,98.20
2018-08-10T16:41:48.426Z,98.40
2018-08-10T16:44:16.903Z,98.10
2018-08-10T16:46:45.417Z,98.20
2018-08-10T16:49:13.897Z,97.70
2018-08-10T16:51:42.446Z,98.00
2018-08-10T16:54:10.958Z,98.50
2018-08-10T16:56:39.437Z,98.40
2018-08-10T16:59:07.905Z,98.10
2018-08-10T17:01:36.690Z,97.60
2018-08-10T17:04:05.514Z,97.50
2018-08-10T17:06:34.129Z,97.20
2018-08-10T17:09:16.024Z,97.70
2018-08-10T17:11:44.561Z,97.60
2018-08-10T17:14:13.526Z,97.90
2018-08-10T17:16:42.081Z,98.30
2018-08-10T17:19:10.850Z,97.80
2018-08-10T17:21:39.429Z,97.70
2018-08-10T17:24:08.227Z,97.80
2018-08-10T17:26:37.147Z,97.80
2018-08-10T17:29:05.591Z,97.30
2018-08-10T17:31:34.062Z,98.00
2018-08-10T17:34:02.480Z,98.30
2018-08-10T17:36:30.925Z,97.70
2018-08-10T17:38:59.881Z,97.90
2018-08-10T17:41:28.846Z,97.90
2018-08-10T17:43:57.273Z,98.20
2018-08-10T17:46:25.721Z,98.70
2018-08-10T17:48:54.234Z,98.10
2018-08-10T17:51:22.737Z,98.20
2018-08-10T17:53:51.230Z,98.90
2018-08-10T17:56:19.670Z,98.20
2018-08-10T17:58:48.230Z,98.60
2018-08-10T18:01:16.634Z,97.70
2018-08-10T18:03:45.105Z,98.60
2018-08-10T18:06:13.770Z,98.90
2018-08-10T18:08:42.833Z,99.00
2018-08-10T18:11:11.273Z,98.40
2018-08-10T18:13:39.729Z,99.10
2018-08-10T18:16:08.637Z,99.00
2018-08-10T18:18:37.094Z,99.90
2018-08-10T18:21:05.559Z,99.90
2018-08-10T18:23:34.269Z,99.90
2018-08-10T18:26:03.402Z,99.90
2018-08-10T18:28:31.846Z,99.70
2018-08-10T18:31:00.309Z,99.40
2018-08-10T18:33:28.757Z,99.90
2018-08-10T18:35:57.310Z,99.90
2018-08-10T18:38:25.740Z,99.80
2018-08-10T18:40:54.233Z,99.90
2018-08-10T18:43:22.737Z,99.90
2018-08-10T18:45:51.324Z,99.90
2018-08-10T18:48:19.822Z,99.90
2018-08-10T18:50:48.583Z,99.90
2018-08-10T18:53:17.185Z,99.90
2018-08-10T18:55:45.673Z,99.90
2018-08-10T18:58:14.378Z,99.90
2018-08-10T19:00:43.495Z,99.90
2018-08-10T19:03:12.013Z,99.90
2018-08-10T19:05:40.480Z,99.90
2018-08-10T19:08:08.936Z,99.90
2018-08-10T19:10:37.393Z,99.90
2018-08-10T19:13:06.025Z,99.90
2018-08-10T19:15:34.526Z,99.90
2018-08-10T19:18:03.029Z,99.90
2018-08-10T19:20:31.517Z,99.90
2018-08-10T19:22:59.973Z,99.90
2018-08-10T19:25:28.542Z,99.90
2018-08-10T19:27:57.033Z,99.90
2018-08-10T19:30:25.687Z,99.90
2018-08-10T19:32:55.152Z,99.90
2018-08-10T19:35:23.771Z,99.90
2018-08-10T19:37:52.249Z,99.90
2018-08-10T19:40:21.078Z,99.90
2018-08-10T19:42:49.522Z,99.90
2018-08-10T19:45:18.357Z,99.90
2018-08-10T19:47:47.083Z,99.90
2018-08-10T19:50:16.962Z,99.90
2018-08-10T19:52:45.421Z,99.90
2018-08-10T19:55:14.890Z,99.90
2018-08-10T19:57:43.507Z,99.90
2018-08-10T20:00:14.030Z,99.90
2018-08-10T20:02:42.671Z,99.90
2018-08-10T20:05:11.405Z,99.90
2018-08-10T20:07:39.951Z,99.90
2018-08-10T20:10:09.941Z,99.90
2018-08-10T20:12:38.442Z,99.90
2018-08-10T20:15:09.181Z,99.90
2018-08-10T20:17:37.675Z,99.90
2018-08-10T20:20:06.723Z,99.90
2018-08-10T20:22:35.229Z,99.90
2018-08-10T20:25:04.198Z,99.90
2018-08-10T20:27:32.736Z,99.90
2018-08-10T20:30:01.311Z,99.90
2018-08-10T20:32:29.915Z,99.90
2018-08-10T20:34:58.453Z,99.90
2018-08-10T20:37:26.936Z,99.90
2018-08-10T20:39:55.430Z,99.90
2018-08-10T20:42:24.057Z,99.90
2018-08-10T20:44:52.881Z,99.90
2018-08-10T20:47:21.406Z,99.90
2018-08-10T20:49:49.899Z,99.90
2018-08-10T20:52:18.349Z,99.90
2018-08-10T20:54:46.841Z,99.90
2018-08-10T20:57:15.461Z,99.90
2018-08-10T20:59:44.317Z,99.90
2018-08-10T21:02:12.838Z,99.90
2018-08-10T21:04:41.870Z,99.90
2018-08-10T21:07:10.362Z,99.90
2018-08-10T21:09:38.802Z,99.90
2018-08-10T21:12:07.298Z,99.90
2018-08-10T21:14:35.774Z,99.90
2018-08-10T21:17:04.208Z,99.90
2018-08-10T21:19:32.654Z,99.90
2018-08-10T21:22:01.121Z,99.90
2018-08-10T21:24:29.549Z,99.90
2018-08-10T21:26:58.005Z,99.90
2018-08-10T21:29:26.417Z,99.90
2018-08-10T21:31:54.905Z,99.90
2018-08-10T21:34:23.342Z,99.90
2018-08-10T21:36:51.805Z,99.90
2018-08-10T21:39:20.231Z,99.90
2018-08-10T21:41:48.689Z,99.90
2018-08-10T21:44:17.582Z,99.90
2018-08-10T21:46:46.045Z,99.90
2018-08-10T21:49:14.471Z,99.90
2018-08-10T21:51:42.957Z,99.90
2018-08-10T21:54:11.394Z,99.90
2018-08-10T21:56:39.864Z,99.90
2018-08-10T21:59:08.338Z,99.90
2018-08-10T22:01:37.034Z,99.90
2018-08-10T22:04:05.513Z,99.90
2018-08-10T22:06:34.017Z,99.90
2018-08-10T22:09:02.618Z,99.90
2018-08-10T22:11:31.427Z,99.90
2018-08-10T22:14:05.232Z,99.90
2018-08-10T22:16:39.446Z,99.90
2018-08-10T22:19:14.998Z,99.90
2018-08-10T22:21:44.673Z,99.90
2018-08-10T22:24:13.883Z,99.90
2018-08-10T22:26:42.489Z,99.90
2018-08-10T22:29:11.110Z,99.90
2018-08-10T22:31:39.931Z,99.90
2018-08-10T22:34:08.729Z,99.90
2018-08-10T22:36:37.186Z,99.90
2018-08-10T22:39:07.626Z,99.90
2018-08-10T22:41:36.141Z,99.90
2018-08-10T22:44:04.647Z,99.90
2018-08-10T22:46:33.097Z,99.90
2018-08-10T22:49:01.597Z,99.90
2018-08-10T22:51:30.053Z,99.90
2018-08-10T22:53:58.720Z,99.90
2018-08-10T22:56:27.145Z,99.90
2018-08-10T22:58:55.594Z,99.90
2018-08-10T23:01:24.073Z,99.90
2018-08-10T23:03:52.573Z,99.90
2018-08-10T23:06:21.135Z,99.90
2018-08-10T23:08:49.652Z,99.90
2018-08-10T23:11:18.018Z,99.90
2018-08-10T23:13:46.559Z,99.90
2018-08-10T23:16:14.994Z,99.90
2018-08-10T23:18:43.673Z,99.90
2018-08-10T23:21:12.123Z,99.90
2018-08-10T23:23:41.400Z,99.90
2018-08-10T23:26:10.065Z,99.90
2018-08-10T23:28:38.521Z,99.90
2018-08-10T23:31:07.009Z,99.90
2018-08-10T23:33:35.658Z,99.90
2018-08-10T23:36:04.117Z,99.90
2018-08-10T23:38:32.607Z,99.90
2018-08-10T23:41:01.085Z,99.90
2018-08-10T23:43:29.551Z,99.90
2018-08-10T23:45:58.214Z,99.90
2018-08-10T23:48:26.701Z,99.90
2018-08-10T23:50:55.553Z,99.90
2018-08-10T23:53:24.057Z,99.90
2018-08-10T23:55:52.545Z,99.90
2018-08-10T23:58:21.133Z,99.90
